Decatur, IL (62522)

12:43 PM CST on December 10, 2016 (GMT -0600)
McClellan | | Change Station

Elev 676 ft 39.84 °N, 88.98 °W | Updated 36 seconds ago

Overcast
Overcast
29.8 °F
Feels Like 30 °F
N
2.7
Wind Variable Wind from West

Today
High -- | Low -- °F
--% Chance of Precip.
Yesterday
High -- | Low -- °F
Precip. -- in
Pressure 30.54 in
Visibility 10.0 miles
Clouds Overcast 5500 ft
Windchill 30 °F
Dew Point 20 °F
Humidity 66%
Rainfall 0.00 in
Snow Depth Not available.
7:06 AM 4:31 PM
Waxing Gibbous, 85% visible
METAR KDEC 101754Z 22007KT 10SM OVC055 M03/M09 A3051 RMK AO2 SLP342 T10331089 11028 21056 58021
Pressure 30.54 in
Visibility 10.0 miles
Clouds Overcast 5500 ft
Windchill 30 °F
Dew Point 20 °F
Humidity 66%
Rainfall 0.00 in
Snow Depth Not available.
7:06 AM 4:31 PM
Waxing Gibbous, 85% visible
METAR KDEC 101754Z 22007KT 10SM OVC055 M03/M09 A3051 RMK AO2 SLP342 T10331089 11028 21056 58021

10-Day Weather Forecast

Almanac

Astronomy

Dec. 10, 2016 Rise Set
Actual Time
Civil Twilight
Nautical Twilight
Astronomical Twilight
Moon
Length of Visible Light
Length of Day
Tomorrow will be .
, % of the Moon is Illuminated

Today's Extremes

State Highs State Lows

Community

WunderPhotos

Upload Photos

1,956,619 photos uploaded!

WunderBlog® & News

Nearby

Air Quality

  Air Quality AQ Index Pollutant
Not available.

Snow Depth

Station Depth Elevation

Earthquake Activity

City Distance Mag. Time & Date
Minimum magnitude displayed is 2.5.

Coastal Water Temperatures

Place Temperature

Stations

Nearby Weather Stations

Station Location Temp. Windchill Dew Point Humidity Wind Precip. Elev Updated Type
                   

Watches & Warnings

There are currently no watches in effect.